Time;durP1;ratioP1;P1;durP2;ratioP2;P2;SDS_P1;SDS_P2;PMS_P1;PMS_P2;Temp;Humidity;BMP_temperature;BMP_pressure;BME280_temperature;BME280_humidity;BME280_pressure;Samples;Min_cycle;Max_cycle;Signal;HPM_P1;HPM_P2
2023/08/21 01:22:06;1000257.00;3.33;1732.93;0.00;0.00;0.62;;;;;26.90;7.10;;;;;;2275696;61;1297;-88
2023/08/21 01:24:35;352653.00;1.18;608.42;0.00;0.00;0.62;;;;;26.90;6.80;;;;;;2305117;56;3836;-87
2023/08/21 01:27:03;462240.00;1.54;796.84;0.00;0.00;0.62;;;;;26.90;7.50;;;;;;2361166;40;3443;-87
2023/08/21 01:39:40;292707.00;0.98;505.38;0.00;0.00;0.62;;;;;26.80;7.10;;;;;;1232729;40;2085;-89
2023/08/21 01:42:07;484226.00;1.61;834.67;0.00;0.00;0.62;;;;;26.90;7.40;;;;;;2330886;40;3742;-87
2023/08/21 01:44:34;253776.00;0.85;438.45;0.00;0.00;0.62;;;;;26.70;9.40;;;;;;2291899;56;3756;-89
2023/08/21 01:47:02;150392.00;0.50;260.48;0.00;0.00;0.62;;;;;26.60;7.60;;;;;;2272614;61;1922;-89
2023/08/21 01:49:29;201347.00;0.67;348.24;0.00;0.00;0.62;;;;;26.50;10.10;;;;;;2301735;40;3781;-89
2023/08/21 01:51:56;184243.00;0.61;318.80;0.00;0.00;0.62;;;;;26.50;8.80;;;;;;2277560;61;872;-90
2023/08/21 01:54:23;182759.00;0.61;316.24;0.00;0.00;0.62;;;;;26.40;8.70;;;;;;2277442;61;1533;-87
2023/08/21 01:56:51;124734.00;0.42;216.25;0.00;0.00;0.62;;;;;26.50;8.60;;;;;;2277767;55;3750;-88
2023/08/21 01:59:18;250790.00;0.84;433.31;0.00;0.00;0.62;;;;;26.50;8.20;;;;;;2273476;61;1573;-91
2023/08/21 02:01:45;572375.00;1.91;986.54;88440.00;0.29;153.61;;;;;26.40;10.30;;;;;;2339045;40;3749;-88
2023/08/21 02:04:12;238507.00;0.80;412.18;0.00;0.00;0.62;;;;;26.40;8.80;;;;;;2288353;55;3813;-89
2023/08/21 02:09:11;953270.00;3.18;1649.88;0.00;0.00;0.62;;;;;26.30;8.90;;;;;;2312434;39;3679;-86
2023/08/21 02:19:16;1129073.00;3.76;1962.49;0.00;0.00;0.62;;;;;26.40;8.70;;;;;;2294995;55;3642;-87
2023/08/21 02:21:43;152980.00;0.51;264.94;0.00;0.00;0.62;;;;;26.30;9.20;;;;;;2272383;61;994;-86
2023/08/21 02:24:10;335890.00;1.12;579.61;0.00;0.00;0.62;;;;;26.30;9.20;;;;;;2311924;40;3714;-89
2023/08/21 02:26:37;132504.00;0.44;229.65;0.00;0.00;0.62;;;;;26.30;8.90;;;;;;2277458;61;1915;-88
2023/08/21 02:29:04;111792.00;0.37;193.92;0.00;0.00;0.62;;;;;26.30;8.90;;;;;;2277286;61;919;-88
2023/08/21 02:34:07;1509278.00;5.03;2660.59;45926.00;0.15;80.14;;;;;26.40;8.80;;;;;;2275830;55;3670;-88
2023/08/21 02:36:35;226662.00;0.76;391.81;0.00;0.00;0.62;;;;;26.30;8.70;;;;;;2269285;61;1166;-88
2023/08/21 02:39:03;187753.00;0.63;324.84;0.00;0.00;0.62;;;;;26.30;10.50;;;;;;2269310;61;989;-88
2023/08/21 02:41:30;245124.00;0.82;423.56;0.00;0.00;0.62;;;;;26.30;10.80;;;;;;2299436;56;3758;-88
2023/08/21 02:43:57;757583.00;2.53;1307.25;60707.00;0.20;105.70;;;;;26.20;10.40;;;;;;2277342;55;3806;-87
2023/08/21 02:48:53;367179.00;1.22;633.39;0.00;0.00;0.62;;;;;26.30;10.10;;;;;;2296460;40;3657;-87
2023/08/21 02:51:20;292449.00;0.97;504.94;0.00;0.00;0.62;;;;;26.40;10.60;;;;;;2282106;56;3803;-87
2023/08/21 02:53:48;571914.00;1.91;985.75;42720.00;0.14;74.59;;;;;26.30;10.50;;;;;;2289479;56;3795;-87
2023/08/21 02:56:15;495742.00;1.65;854.49;57587.00;0.19;100.31;;;;;26.30;10.50;;;;;;2279589;55;3766;-88
2023/08/21 02:58:42;169312.00;0.56;293.08;0.00;0.00;0.62;;;;;26.20;10.30;;;;;;2285278;40;3587;-88
2023/08/21 03:01:11;467895.00;1.56;806.57;77781.00;0.26;135.20;;;;;26.30;10.60;;;;;;2277346;55;3812;-88
2023/08/21 03:06:24;1251884.00;4.17;2184.31;115556.00;0.39;200.42;;;;;26.10;10.50;;;;;;2284337;55;3729;-87
2023/08/21 03:08:52;438373.00;1.46;755.78;65613.00;0.22;114.18;;;;;26.00;10.70;;;;;;2274983;55;3758;-87
2023/08/21 03:11:19;415207.00;1.38;715.95;73258.00;0.24;127.39;;;;;25.90;11.00;;;;;;2276691;61;1637;-88
2023/08/21 03:13:46;1036724.00;3.46;1797.62;317595.00;1.06;548.16;;;;;25.70;11.20;;;;;;2276556;61;1351;-87
2023/08/21 03:16:13;336225.00;1.12;580.19;65202.00;0.22;113.47;;;;;25.70;12.10;;;;;;2336291;40;3783;-89
2023/08/21 03:21:07;1030692.00;3.44;1786.91;116341.00;0.39;201.77;;;;;25.70;11.80;;;;;;1964473;56;3602;-87
2023/08/21 03:26:03;999334.00;3.33;1731.29;85094.00;0.28;147.84;;;;;25.50;12.80;;;;;;2281185;40;3569;-87
2023/08/21 03:28:30;480395.00;1.60;828.08;69408.00;0.23;120.74;;;;;25.60;11.30;;;;;;2276730;61;1553;-88
2023/08/21 03:33:26;728298.00;2.43;1256.35;73412.00;0.24;127.66;;;;;25.60;12.00;;;;;;2270435;61;1420;-87
2023/08/21 03:40:56;1231369.00;4.10;2147.04;62664.00;0.21;109.08;;;;;25.50;12.50;;;;;;1967700;40;3351;-87
2023/08/21 03:43:25;423888.00;1.41;730.88;75927.00;0.25;132.00;;;;;25.50;13.00;;;;;;2272656;61;1310;-86
2023/08/21 03:48:22;120788328.00;402.63;71389936.00;148125.00;0.49;256.58;;;;;25.30;13.20;;;;;;2274805;61;1424;-87
2023/08/21 03:50:49;604711.00;2.02;1042.36;66402.00;0.22;115.54;;;;;25.10;14.40;;;;;;2272776;61;1046;-87
2023/08/21 03:53:16;636064.00;2.12;1096.53;104805.00;0.35;181.87;;;;;25.20;12.00;;;;;;2272721;61;1704;-86
2023/08/21 03:55:43;809350.00;2.70;1397.43;91999.00;0.31;159.76;;;;;25.20;13.60;;;;;;2272553;61;1458;-88
2023/08/21 03:58:10;950840.00;3.17;1645.59;258486.00;0.86;446.54;;;;;25.20;13.10;;;;;;2276539;40;3622;-86
2023/08/21 04:03:11;1648363.00;5.49;2925.53;144441.00;0.48;250.23;;;;;25.30;13.00;;;;;;2341430;40;3634;-86
2023/08/21 04:05:38;1105885.00;3.69;1920.95;107372.00;0.36;186.30;;;;;25.20;13.70;;;;;;2272642;61;2009;-87
2023/08/21 04:10:34;1069909.00;3.57;1856.69;13694.00;0.05;24.35;;;;;25.30;13.40;;;;;;2274468;61;1505;-87
2023/08/21 04:13:01;342237.00;1.14;590.52;0.00;0.00;0.62;;;;;25.20;13.20;;;;;;2278332;55;3780;-87
2023/08/21 04:15:29;631305.00;2.10;1088.31;65133.00;0.22;113.35;;;;;25.30;12.90;;;;;;2272646;61;1529;-87
2023/08/21 04:17:56;535664.00;1.79;923.25;71674.00;0.24;124.65;;;;;25.40;12.60;;;;;;2272735;61;1588;-90
2023/08/21 04:20:24;387151.00;1.29;667.72;71399.00;0.24;124.18;;;;;25.60;12.00;;;;;;2272571;61;1785;-86
2023/08/21 04:22:51;498660.00;1.66;859.52;66596.00;0.22;115.88;;;;;25.50;11.70;;;;;;2272739;61;1695;-86
2023/08/21 04:25:18;546914.00;1.82;942.64;69387.00;0.23;120.70;;;;;25.60;11.80;;;;;;2272696;61;1305;-87
2023/08/21 04:27:45;646147.00;2.15;1113.97;56132.00;0.19;97.79;;;;;25.60;11.20;;;;;;2272544;61;2019;-86
2023/08/21 04:30:13;665570.00;2.22;1147.58;83211.00;0.28;144.58;;;;;25.60;11.70;;;;;;2272464;61;1610;-85
2023/08/21 04:32:40;623632.00;2.08;1075.04;58176.00;0.19;101.32;;;;;25.70;11.60;;;;;;2272617;61;1545;-88
2023/08/21 04:35:08;1053195.00;3.51;1826.92;78542.00;0.26;136.52;;;;;25.70;10.30;;;;;;2302280;56;3757;-88
2023/08/21 04:37:44;875576.00;2.92;1513.26;63636.00;0.21;110.76;;;;;25.80;10.70;;;;;;2276659;61;1021;-86
2023/08/21 04:40:12;409703.00;1.37;706.49;31806.00;0.11;55.71;;;;;25.60;11.20;;;;;;2276550;61;1707;-86
2023/08/21 04:42:39;698374.00;2.33;1204.42;51883.00;0.17;90.44;;;;;25.50;11.90;;;;;;2277825;55;3778;-87
2023/08/21 04:45:07;387005.00;1.29;667.47;0.00;0.00;0.62;;;;;25.60;12.70;;;;;;2272333;61;1454;-88
2023/08/21 04:50:03;803790.00;2.68;1387.73;22858.00;0.08;40.22;;;;;25.70;11.10;;;;;;2330673;40;3661;-87
2023/08/21 04:52:30;364761.00;1.22;629.23;5016.00;0.02;9.31;;;;;25.90;11.00;;;;;;2276781;61;971;-88
2023/08/21 04:54:59;468600.00;1.56;807.78;19407.00;0.06;34.24;;;;;25.90;11.00;;;;;;2277291;61;1436;-87
2023/08/21 04:57:25;298272.00;0.99;514.95;0.00;0.00;0.62;;;;;25.90;10.30;;;;;;2277331;61;1727;-87
2023/08/21 05:02:22;1284452.00;4.28;2243.68;0.00;0.00;0.62;;;;;25.80;10.90;;;;;;2271185;61;1243;-86
2023/08/21 05:04:49;248796.00;0.83;429.88;0.00;0.00;0.62;;;;;25.60;12.10;;;;;;2269316;61;1468;-88
2023/08/21 05:07:16;274839.00;0.92;474.66;0.00;0.00;0.62;;;;;25.80;11.10;;;;;;2275596;40;3442;-86
2023/08/21 05:14:45;925806.00;3.09;1601.49;40974.00;0.14;71.57;;;;;26.10;10.50;;;;;;2272121;61;1424;-86
2023/08/21 05:17:12;382184.00;1.27;659.18;17323.00;0.06;30.63;;;;;26.00;10.30;;;;;;2269169;61;1109;-85
2023/08/21 05:19:39;433654.00;1.45;747.67;0.00;0.00;0.62;;;;;25.90;10.40;;;;;;2269300;61;994;-87
2023/08/21 05:22:06;209398.00;0.70;362.10;0.00;0.00;0.62;;;;;25.80;11.10;;;;;;2269163;61;1668;-87
2023/08/21 05:24:33;355220.00;1.18;612.83;8420.00;0.03;15.21;;;;;25.70;11.20;;;;;;2269141;61;1428;-87
2023/08/21 05:27:00;394018.00;1.31;679.52;0.00;0.00;0.62;;;;;25.80;11.80;;;;;;2269014;61;2012;-87
2023/08/21 05:29:27;367037.00;1.22;633.14;31994.00;0.11;56.03;;;;;25.80;11.20;;;;;;2269059;61;1120;-86
2023/08/21 05:31:55;362642.00;1.21;625.59;0.00;0.00;0.62;;;;;25.90;11.90;;;;;;2269171;61;1055;-87
2023/08/21 05:34:22;485772.00;1.62;837.33;34789.00;0.12;60.87;;;;;26.30;12.80;;;;;;2268938;61;1720;-86
2023/08/21 05:36:49;358893.00;1.20;619.15;31799.00;0.11;55.70;;;;;27.10;13.50;;;;;;2271432;55;3730;-86
2023/08/21 05:39:16;757443.00;2.52;1307.00;85931.00;0.29;149.28;;;;;28.20;10.80;;;;;;2273246;61;1257;-87
2023/08/21 05:41:43;288009.00;0.96;497.31;0.00;0.00;0.62;;;;;29.00;5.90;;;;;;2273084;61;1036;-90
2023/08/21 05:44:10;353044.00;1.18;609.09;0.00;0.00;0.62;;;;;29.60;5.30;;;;;;2272902;61;1425;-88
2023/08/21 05:46:37;328527.00;1.10;566.95;0.00;0.00;0.62;;;;;30.20;3.30;;;;;;2273090;61;1919;-89
2023/08/21 05:49:06;234602.00;0.78;405.47;0.00;0.00;0.62;;;;;30.80;3.60;;;;;;2272946;61;987;-87
2023/08/21 05:51:32;367802.00;1.23;634.46;0.00;0.00;0.62;;;;;31.10;4.70;;;;;;2294109;40;3783;-88
2023/08/21 05:53:59;272149.00;0.91;470.04;3768.00;0.01;7.15;;;;;32.10;4.10;;;;;;2273051;61;1725;-89
2023/08/21 05:56:26;262338.00;0.87;453.17;0.00;0.00;0.62;;;;;32.10;5.90;;;;;;2273120;61;1081;-88
2023/08/21 05:58:53;341916.00;1.14;589.97;2659.00;0.01;5.23;;;;;32.70;1.00;;;;;;2273066;61;959;-87
2023/08/21 06:01:20;681896.00;2.27;1175.86;72851.00;0.24;126.69;;;;;33.10;1.80;;;;;;2273152;61;962;-87
2023/08/21 06:03:47;466243.00;1.55;803.73;8864.00;0.03;15.98;;;;;33.60;1.00;;;;;;2272963;61;1410;-89
2023/08/21 06:06:15;547395.00;1.82;943.47;70493.00;0.23;122.61;;;;;34.10;1.00;;;;;;2276421;55;3740;-88
2023/08/21 06:08:42;363158.00;1.21;626.48;0.00;0.00;0.62;;;;;34.30;1.00;;;;;;2277032;61;1122;-88
2023/08/21 06:11:09;603128.00;2.01;1039.62;26943.00;0.09;47.29;;;;;34.60;1.00;;;;;;2277103;61;1395;-88
2023/08/21 06:13:36;443394.00;1.48;764.42;6122.00;0.02;11.23;;;;;34.80;1.00;;;;;;2277121;61;1430;-88
2023/08/21 06:16:03;579623.00;1.93;999.05;73646.00;0.25;128.06;;;;;35.10;1.00;;;;;;2277001;61;1071;-87
2023/08/21 06:23:30;679118.00;2.26;1171.05;0.00;0.00;0.62;;;;;35.40;1.00;;;;;;2274823;61;1364;-87
2023/08/21 06:25:57;583488.00;1.94;1005.72;0.00;0.00;0.62;;;;;35.80;1.00;;;;;;2273070;61;994;-87
2023/08/21 06:28:24;643922.00;2.15;1110.12;43109.00;0.14;75.27;;;;;36.10;1.00;;;;;;2272983;61;1893;-87
2023/08/21 06:30:58;572842.00;1.91;987.35;16262.00;0.05;28.80;;;;;36.00;1.00;;;;;;2272856;61;1281;-88
2023/08/21 06:33:25;694495.00;2.31;1197.69;36073.00;0.12;63.09;;;;;35.90;1.00;;;;;;2272995;61;1491;-87
2023/08/21 06:35:52;725826.00;2.42;1252.05;65411.00;0.22;113.83;;;;;35.90;1.00;;;;;;2280212;55;3766;-88
2023/08/21 06:38:20;515513.00;1.72;888.54;33090.00;0.11;57.93;;;;;35.80;1.00;;;;;;2272927;61;1131;-87
2023/08/21 06:40:48;628535.00;2.10;1083.52;13011.00;0.04;23.17;;;;;35.90;1.00;;;;;;2297336;40;3780;-88
2023/08/21 06:43:15;742912.00;2.48;1281.74;17103.00;0.06;30.25;;;;;35.90;1.00;;;;;;2272962;61;1020;-88
2023/08/21 06:45:42;1427794.00;4.76;2507.97;90732.00;0.30;157.57;;;;;35.70;1.00;;;;;;2272784;61;1551;-86
2023/08/21 06:48:09;956531.00;3.19;1655.63;97863.00;0.33;169.88;;;;;34.90;1.00;;;;;;2272986;61;1997;-86
2023/08/21 06:50:38;932145.00;3.11;1612.65;130061.00;0.43;225.43;;;;;34.60;1.00;;;;;;2272973;61;1127;-89
2023/08/21 06:53:05;119744712.00;399.15;69553800.00;63264.00;0.21;110.12;;;;;34.70;1.00;;;;;;2272833;61;1539;-86
2023/08/21 06:55:32;716578.00;2.39;1236.00;59813.00;0.20;104.15;;;;;34.90;1.00;;;;;;2272750;61;1417;-88
2023/08/21 06:58:01;291328.00;0.97;503.01;63340.00;0.21;110.25;;;;;35.60;1.00;;;;;;2278730;40;3593;-87
2023/08/21 07:00:28;377106.00;1.26;650.45;54099.00;0.18;94.27;;;;;36.00;1.00;;;;;;2276634;61;1065;-88
2023/08/21 07:02:54;129753.00;0.43;224.90;0.00;0.00;0.62;;;;;35.90;1.00;;;;;;2276855;61;965;-88
2023/08/21 07:05:22;103133.00;0.34;178.98;0.00;0.00;0.62;;;;;36.00;1.00;;;;;;2276756;61;1565;-88
2023/08/21 07:07:49;338562.00;1.13;584.20;138862.00;0.46;240.61;;;;;36.70;1.00;;;;;;2276851;61;2012;-87
2023/08/21 07:10:16;189848.00;0.63;328.45;0.00;0.00;0.62;;;;;37.10;1.00;;;;;;2281520;56;3737;-89
2023/08/21 07:12:43;75200.00;0.25;130.75;0.00;0.00;0.62;;;;;37.40;1.00;;;;;;2272736;61;1094;-88
2023/08/21 07:15:11;150048.00;0.50;259.89;0.00;0.00;0.62;;;;;37.60;1.00;;;;;;2272513;61;1643;-88
2023/08/21 07:17:38;328491.00;1.09;566.89;62531.00;0.21;108.85;;;;;37.50;1.00;;;;;;2272619;61;1534;-89
2023/08/21 07:20:07;78388.00;0.26;136.25;0.00;0.00;0.62;;;;;37.20;1.00;;;;;;2272707;61;1052;-87
2023/08/21 07:22:34;28316.00;0.09;49.67;0.00;0.00;0.62;;;;;37.40;1.00;;;;;;2272776;61;964;-88
2023/08/21 07:25:03;203404.00;0.68;351.78;0.00;0.00;0.62;;;;;37.80;1.00;;;;;;2272779;61;1281;-86
2023/08/21 07:27:30;142225.00;0.47;246.41;0.00;0.00;0.62;;;;;38.20;1.00;;;;;;2272467;61;1931;-86
2023/08/21 07:29:58;156797.00;0.52;271.52;0.00;0.00;0.62;;;;;37.60;1.00;;;;;;2272736;61;960;-90
2023/08/21 07:32:26;146993.00;0.49;254.62;0.00;0.00;0.62;;;;;37.80;1.00;;;;;;2272548;61;1576;-87
2023/08/21 07:34:54;140796.00;0.47;243.94;0.00;0.00;0.62;;;;;38.40;1.00;;;;;;2276164;55;3818;-87
2023/08/21 07:37:21;254564.00;0.85;439.80;0.00;0.00;0.62;;;;;38.30;1.00;;;;;;2276720;61;1069;-87
2023/08/21 07:39:48;349592.00;1.17;603.16;0.00;0.00;0.62;;;;;38.40;1.00;;;;;;2276452;61;1471;-88
2023/08/21 07:42:15;193155.00;0.64;334.14;0.00;0.00;0.62;;;;;38.90;1.00;;;;;;2299834;40;3727;-88
2023/08/21 07:44:42;117526224.00;391.75;65755816.00;15551.00;0.05;27.57;;;;;38.80;1.00;;;;;;2272368;61;1250;-87
2023/08/21 07:47:10;649753.00;2.17;1120.21;1330.00;0.00;2.93;;;;;38.90;1.00;;;;;;2283466;40;3605;-87
2023/08/21 07:49:39;1109569.00;3.70;1927.54;71058.00;0.24;123.59;;;;;38.80;1.00;;;;;;2281400;40;3617;-86
2023/08/21 07:52:06;1331096.00;4.44;2329.13;58384.00;0.19;101.68;;;;;39.00;1.00;;;;;;2292599;55;3765;-88
2023/08/21 07:54:35;1414709.00;4.72;2483.63;101118.00;0.34;175.50;;;;;38.90;1.00;;;;;;2378118;40;3800;-88
2023/08/21 07:57:03;1121264.00;3.74;1948.49;73678.00;0.25;128.12;;;;;38.80;1.00;;;;;;2282623;40;3583;-88
2023/08/21 07:59:32;1930395.00;6.43;3482.37;97708.00;0.33;169.62;;;;;39.50;1.00;;;;;;2296301;40;3611;-89
2023/08/21 08:02:00;897408.00;2.99;1551.57;76768.00;0.26;133.45;;;;;38.70;1.00;;;;;;2335685;40;3666;-87
2023/08/21 08:04:28;1024969.00;3.42;1776.75;149293.00;0.50;258.59;;;;;38.70;1.00;;;;;;2279957;40;3621;-88
2023/08/21 08:09:30;1405193.00;4.68;2465.96;56731.00;0.19;98.83;;;;;38.60;1.00;;;;;;2277444;55;3638;-86
2023/08/21 08:11:57;878078.00;2.93;1517.65;98690.00;0.33;171.31;;;;;39.00;1.00;;;;;;2301031;40;3551;-87
2023/08/21 08:14:25;762792.00;2.54;1316.31;111302.00;0.37;193.08;;;;;39.10;1.00;;;;;;2287549;56;3797;-89
2023/08/21 08:19:21;1255385.00;4.18;2190.68;36880.00;0.12;64.49;;;;;39.50;1.00;;;;;;2302296;55;3664;-87
2023/08/21 08:34:27;1157386.00;3.86;2013.36;14331.00;0.05;25.45;;;;;38.80;1.00;;;;;;2287326;40;3518;-89
2023/08/21 08:39:25;1121656.00;3.74;1949.20;0.00;0.00;0.62;;;;;39.20;1.00;;;;;;2328600;55;3676;-89
2023/08/21 08:44:28;326133.00;1.09;562.84;0.00;0.00;0.62;;;;;39.00;1.00;;;;;;1871707;40;3205;-88
2023/08/21 08:59:47;941177.00;3.14;1628.56;110157.00;0.37;191.10;;;;;37.70;1.00;;;;;;1923549;40;3084;-89
2023/08/21 09:12:33;2580504.00;8.60;4892.41;48515.00;0.16;84.62;;;;;37.00;1.00;;;;;;2310975;40;3469;-87
2023/08/21 09:22:42;126554952.00;421.85;82121504.00;159091.00;0.53;275.47;;;;;35.70;1.00;;;;;;1581562;56;2160;-88
2023/08/21 09:30:16;1327479.00;4.42;2322.48;63990.00;0.21;111.37;;;;;35.90;1.00;;;;;;2312145;55;3649;-89
2023/08/21 09:32:57;199505.00;0.67;345.07;51170.00;0.17;89.21;;;;;35.50;1.00;;;;;;2401749;55;3754;-87
2023/08/21 09:35:26;863189.00;2.88;1491.56;105989.00;0.35;183.91;;;;;35.70;1.00;;;;;;2277739;40;3666;-87
2023/08/21 09:47:59;538961.00;1.80;928.93;54160.00;0.18;94.38;;;;;35.30;1.00;;;;;;2278123;56;1988;-87
2023/08/21 09:52:58;1272010.00;4.24;2220.97;0.00;0.00;0.62;;;;;34.70;1.00;;;;;;2317341;40;3661;-87
2023/08/21 10:00:35;1156550.00;3.86;2011.86;0.00;0.00;0.62;;;;;33.70;1.00;;;;;;2369016;55;3563;-87
2023/08/21 10:13:17;293985.00;0.98;507.58;0.00;0.00;0.62;;;;;33.90;1.00;;;;;;2306313;56;1751;-88
2023/08/21 10:33:48;193493.00;0.64;334.72;24249.00;0.08;42.63;;;;;33.50;1.00;;;;;;2064395;55;2712;-89
2023/08/21 10:36:40;271214.00;0.90;468.43;0.00;0.00;0.62;;;;;33.70;1.00;;;;;;2281018;40;3640;-89
2023/08/21 10:39:20;311560.00;1.04;537.79;0.00;0.00;0.62;;;;;33.20;1.00;;;;;;2359832;40;3727;-89
2023/08/21 10:41:55;411356.00;1.37;709.33;18874.00;0.06;33.32;;;;;33.10;1.00;;;;;;2281755;40;3620;-89
2023/08/21 10:44:36;225296.00;0.75;389.46;0.00;0.00;0.62;;;;;33.20;1.00;;;;;;2276527;61;1589;-89
2023/08/21 10:52:21;137233.00;0.46;237.80;0.00;0.00;0.62;;;;;33.40;1.00;;;;;;1396997;40;3197;-87
2023/08/21 10:59:58;1390732.00;4.64;2439.15;0.00;0.00;0.62;;;;;33.30;1.00;;;;;;2293038;39;3612;-88
2023/08/21 11:05:02;486579.00;1.62;838.72;65913.00;0.22;114.70;;;;;33.30;1.00;;;;;;2396877;40;2079;-86
2023/08/21 11:07:37;235675.00;0.79;407.31;59789.00;0.20;104.11;;;;;33.50;1.00;;;;;;2349497;39;3760;-88
2023/08/21 11:12:49;741527.00;2.47;1279.33;70765.00;0.24;123.08;;;;;33.60;1.00;;;;;;2353622;40;1800;-89
2023/08/21 11:20:21;241647.00;0.81;417.58;5609.00;0.02;10.34;;;;;33.40;1.00;;;;;;2484219;39;2041;-88
2023/08/21 11:22:49;468127.00;1.56;806.97;13543.00;0.05;24.09;;;;;33.70;1.00;;;;;;2295106;40;3732;-86
2023/08/21 11:25:17;973631.00;3.25;1685.82;0.00;0.00;0.62;;;;;34.20;1.00;;;;;;2320249;40;3593;-88
2023/08/21 11:30:19;1183864.00;3.95;2061.07;46952.00;0.16;81.91;;;;;34.10;1.00;;;;;;2332665;40;3626;-87
2023/08/21 11:32:47;493789.00;1.65;851.13;0.00;0.00;0.62;;;;;34.20;1.00;;;;;;2304225;40;3547;-88
2023/08/21 11:35:19;403703.00;1.35;696.17;0.00;0.00;0.62;;;;;34.40;1.00;;;;;;2370127;55;3707;-90
2023/08/21 11:37:46;294205.00;0.98;507.96;0.00;0.00;0.62;;;;;34.00;1.00;;;;;;2288917;40;3751;-87
2023/08/21 11:40:15;258110.00;0.86;445.90;0.00;0.00;0.62;;;;;34.00;1.00;;;;;;2288407;40;3586;-87
2023/08/21 11:45:11;1052617.00;3.51;1825.89;0.00;0.00;0.62;;;;;34.00;1.00;;;;;;2274335;61;1439;-87
2023/08/21 11:47:41;385055.00;1.28;664.11;41147.00;0.14;71.87;;;;;34.00;1.00;;;;;;2295939;39;3627;-89
2023/08/21 11:50:12;614028.00;2.05;1058.45;17733.00;0.06;31.34;;;;;33.40;1.00;;;;;;2287128;40;3752;-87
2023/08/21 11:55:13;1193518.00;3.98;2078.50;0.00;0.00;0.62;;;;;34.00;1.00;;;;;;2316608;55;3573;-90
2023/08/21 12:07:52;990263.00;3.30;1715.23;46597.00;0.16;81.30;;;;;34.50;1.00;;;;;;2275256;61;1903;-88
2023/08/21 12:10:24;395509.00;1.32;682.08;35490.00;0.12;62.08;;;;;34.80;1.00;;;;;;2273420;61;1776;-88
2023/08/21 12:12:53;875333.00;2.92;1512.84;87040.00;0.29;151.20;;;;;35.20;1.00;;;;;;2273573;61;1564;-89
2023/08/21 12:15:22;1067122.00;3.56;1851.73;81510.00;0.27;141.65;;;;;34.90;1.00;;;;;;2273476;61;1593;-87
2023/08/21 12:17:49;1229458.00;4.10;2143.57;86001.00;0.29;149.40;;;;;34.80;1.00;;;;;;2273614;61;923;-88
2023/08/21 12:20:16;1403718.00;4.68;2463.22;141480.00;0.47;245.12;;;;;34.80;1.00;;;;;;2273597;61;957;-88
2023/08/21 12:22:43;1427076.00;4.76;2506.64;117917.00;0.39;204.49;;;;;34.30;1.00;;;;;;2273477;61;1418;-87
2023/08/21 12:25:16;1028390.00;3.43;1782.82;113795.00;0.38;197.38;;;;;34.40;1.00;;;;;;2273449;61;1735;-87
2023/08/21 12:27:44;1478447.00;4.93;2602.63;184140.00;0.61;318.62;;;;;34.50;1.00;;;;;;2273474;61;1912;-86
2023/08/21 12:30:13;1388774.00;4.63;2435.52;164825.00;0.55;285.35;;;;;34.70;1.00;;;;;;2273472;61;2198;-88
2023/08/21 12:32:41;1141886.00;3.81;1985.49;165364.00;0.55;286.28;;;;;34.80;1.00;;;;;;2273504;61;1056;-87
2023/08/21 12:35:11;119251816.00;397.51;68697648.00;165480.00;0.55;286.48;;;;;34.90;1.00;;;;;;2273330;61;1720;-88
2023/08/21 12:37:38;707212.00;2.36;1219.75;95016.00;0.32;164.97;;;;;35.30;1.00;;;;;;2273527;61;1072;-88
2023/08/21 12:40:08;247505.00;0.83;427.66;43642.00;0.15;76.19;;;;;35.70;1.00;;;;;;2273506;61;1075;-87
2023/08/21 12:42:36;461233.00;1.54;795.11;128056.00;0.43;221.98;;;;;35.30;1.00;;;;;;2273538;61;1170;-88
2023/08/21 12:45:03;293443.00;0.98;506.65;58965.00;0.20;102.69;;;;;34.80;1.00;;;;;;2273465;61;1310;-87
2023/08/21 12:47:30;446996.00;1.49;770.62;65197.00;0.22;113.46;;;;;34.40;1.00;;;;;;2273474;61;2000;-87
2023/08/21 12:49:56;117455344.00;391.52;65636812.00;100285.00;0.33;174.06;;;;;34.80;1.00;;;;;;2273506;61;1037;-87
2023/08/21 12:52:23;818678.00;2.73;1413.72;43350.00;0.14;75.68;;;;;34.80;1.00;;;;;;2273463;61;1043;-87
2023/08/21 12:54:50;264382.00;0.88;456.68;55398.00;0.18;96.52;;;;;35.00;1.00;;;;;;2273511;61;1289;-88
2023/08/21 12:57:17;161512.00;0.54;279.64;52849.00;0.18;92.11;;;;;34.70;1.00;;;;;;2273516;61;1596;-88
2023/08/21 12:59:48;274408.00;0.91;473.92;57170.00;0.19;99.58;;;;;34.60;1.00;;;;;;2273462;61;1102;-87
2023/08/21 13:02:16;640987.00;2.14;1105.05;56873.00;0.19;99.07;;;;;34.70;1.00;;;;;;2273501;61;1107;-88
2023/08/21 13:04:42;538818.00;1.80;928.69;57498.00;0.19;100.15;;;;;34.90;1.00;;;;;;2273440;61;1290;-87
2023/08/21 13:07:10;771634.00;2.57;1331.70;121634.00;0.41;210.90;;;;;35.20;1.00;;;;;;2273419;61;1015;-88
2023/08/21 13:09:37;818990.00;2.73;1414.26;71008.00;0.24;123.50;;;;;35.50;1.00;;;;;;2273436;61;1928;-86
2023/08/21 13:12:04;846812.00;2.82;1462.89;52441.00;0.17;91.41;;;;;36.00;1.00;;;;;;2273376;61;1688;-87
2023/08/21 13:14:31;537994.00;1.79;927.27;52098.00;0.17;90.81;;;;;36.40;1.00;;;;;;2273239;61;1348;-87
2023/08/21 13:16:59;691235.00;2.30;1192.04;82614.00;0.28;143.55;;;;;36.20;1.00;;;;;;2273458;61;1086;-87
2023/08/21 13:19:26;524492.00;1.75;904.00;88882.00;0.30;154.38;;;;;35.50;1.00;;;;;;2273351;61;2337;-86
2023/08/21 13:21:54;464324.00;1.55;800.42;52171.00;0.17;90.94;;;;;35.60;1.00;;;;;;2273455;61;1074;-87
2023/08/21 13:24:21;714548.00;2.38;1232.48;35253.00;0.12;61.67;;;;;36.00;1.00;;;;;;2273235;61;1627;-86
2023/08/21 13:26:48;391758.00;1.31;675.64;82455.00;0.27;143.28;;;;;36.00;1.00;;;;;;2273375;61;1132;-87
2023/08/21 13:29:15;420082.00;1.40;724.33;82603.00;0.28;143.53;;;;;35.80;1.00;;;;;;2273101;61;1923;-86
2023/08/21 13:31:42;329336.00;1.10;568.34;55168.00;0.18;96.12;;;;;35.80;1.00;;;;;;2273356;61;1105;-87
2023/08/21 13:34:10;638196.00;2.13;1100.22;107417.00;0.36;186.37;;;;;34.90;1.00;;;;;;2273316;61;1253;-87
2023/08/21 13:36:37;408149.00;1.36;703.81;62310.00;0.21;108.47;;;;;34.80;1.00;;;;;;2273337;61;1133;-85
2023/08/21 13:39:05;404000.00;1.35;696.68;56289.00;0.19;98.06;;;;;34.70;1.00;;;;;;2273293;61;1122;-85
2023/08/21 13:41:32;500114.00;1.67;862.02;86518.00;0.29;150.29;;;;;34.80;1.00;;;;;;2273341;61;1126;-85
2023/08/21 13:43:59;682605.00;2.28;1177.09;59706.00;0.20;103.97;;;;;35.40;1.00;;;;;;2273319;61;1397;-86
2023/08/21 13:46:26;557735.00;1.86;961.29;53723.00;0.18;93.62;;;;;35.70;1.00;;;;;;2273322;61;1090;-87
2023/08/21 13:48:53;363401.00;1.21;626.89;58383.00;0.19;101.68;;;;;35.40;1.00;;;;;;2273323;61;2001;-87
2023/08/21 13:51:21;608581.00;2.03;1049.04;56467.00;0.19;98.37;;;;;35.20;1.00;;;;;;2273320;61;1051;-86
2023/08/21 13:53:48;632042.00;2.11;1089.58;53186.00;0.18;92.70;;;;;35.00;1.00;;;;;;2273319;61;1287;-86
2023/08/21 13:56:15;625033.00;2.08;1077.46;72430.00;0.24;125.96;;;;;34.70;1.00;;;;;;2273198;61;1607;-86
2023/08/21 13:58:42;508989.00;1.70;877.30;51524.00;0.17;89.82;;;;;35.00;1.00;;;;;;2273193;61;1414;-87
2023/08/21 14:01:09;653812.00;2.18;1127.23;59506.00;0.20;103.62;;;;;35.20;1.00;;;;;;2273325;61;1048;-87
2023/08/21 14:03:36;475934.00;1.59;820.40;52513.00;0.18;91.53;;;;;35.20;1.00;;;;;;2273216;61;1396;-86
2023/08/21 14:06:02;546149.00;1.82;941.32;55479.00;0.18;96.66;;;;;35.30;1.00;;;;;;2273235;61;1054;-87
2023/08/21 14:08:31;712734.00;2.38;1229.33;56188.00;0.19;97.89;;;;;35.40;1.00;;;;;;2273270;61;1919;-89
2023/08/21 14:10:58;549396.00;1.83;946.92;55507.00;0.19;96.71;;;;;35.50;1.00;;;;;;2273142;61;1126;-87
2023/08/21 14:13:25;747247.00;2.49;1289.27;99282.00;0.33;172.33;;;;;35.70;1.00;;;;;;2273213;61;1292;-88
2023/08/21 14:15:52;408151.00;1.36;703.82;54839.00;0.18;95.55;;;;;35.70;1.00;;;;;;2273235;61;1099;-88
2023/08/21 14:18:19;625448.00;2.08;1078.18;70647.00;0.24;122.88;;;;;35.30;1.00;;;;;;2273221;61;963;-87
2023/08/21 14:20:45;630317.00;2.10;1086.60;53334.00;0.18;92.95;;;;;35.30;1.00;;;;;;2273215;61;1429;-87